createdAt,value
2022-10-02T00:01:57.162Z,97248.47
2022-10-02T00:04:28.355Z,97252.28
2022-10-02T00:07:00.306Z,97252.06
2022-10-02T00:09:34.273Z,97251.66
2022-10-02T00:12:05.582Z,97252.47
2022-10-02T00:14:37.248Z,97261.53
2022-10-02T00:17:05.455Z,97265.03
2022-10-02T00:19:33.434Z,97265.44
2022-10-02T00:22:16.108Z,97274.19
2022-10-02T00:24:48.941Z,97268.91
2022-10-02T00:27:35.479Z,97272.22
2022-10-02T00:30:06.072Z,97275.31
2022-10-02T00:32:39.126Z,97283.88
2022-10-02T00:35:34.500Z,97284.78
2022-10-02T00:38:08.510Z,97290.34
2022-10-02T00:40:48.392Z,97285.47
2022-10-02T00:43:25.746Z,97298.38
2022-10-02T00:46:30.083Z,97303.34
2022-10-02T00:49:19.509Z,97303.09
2022-10-02T00:51:57.996Z,97313.06
2022-10-02T00:54:49.676Z,97306.31
2022-10-02T00:57:24.736Z,97312.69
2022-10-02T01:00:05.996Z,97318.69
2022-10-02T01:03:22.616Z,97323.28
2022-10-02T01:05:50.971Z,97319.59
2022-10-02T01:08:19.020Z,97318.25
2022-10-02T01:10:47.033Z,97322.41
2022-10-02T01:13:14.978Z,97324.25
2022-10-02T01:15:50.037Z,97331.88
2022-10-02T01:18:18.312Z,97325.13
2022-10-02T01:20:48.899Z,97331.00
2022-10-02T01:23:23.488Z,97335.03
2022-10-02T01:25:52.881Z,97345.63
2022-10-02T01:28:21.245Z,97341.19
2022-10-02T01:30:52.076Z,97331.97
2022-10-02T01:33:20.704Z,97338.06
2022-10-02T01:35:48.936Z,97330.41
2022-10-02T01:38:19.155Z,97331.72
2022-10-02T01:40:47.148Z,97329.22
2022-10-02T01:43:19.516Z,97320.16
2022-10-02T01:45:54.058Z,97316.81
2022-10-02T01:48:27.308Z,97301.44
2022-10-02T01:51:04.445Z,97308.53
2022-10-02T01:53:36.064Z,97301.16
2022-10-02T01:56:11.560Z,97304.75
2022-10-02T01:58:48.585Z,97312.53
2022-10-02T02:01:24.220Z,97316.31
2022-10-02T02:03:55.996Z,97308.72
2022-10-02T02:06:29.369Z,97314.34
2022-10-02T02:09:04.627Z,97321.91
2022-10-02T02:11:32.779Z,97333.28
2022-10-02T02:14:04.863Z,97339.84
2022-10-02T02:16:37.049Z,97336.84
2022-10-02T02:19:08.830Z,97328.00
2022-10-02T02:21:39.937Z,97328.47
2022-10-02T02:24:12.440Z,97325.06
2022-10-02T02:26:43.695Z,97325.78
2022-10-02T02:29:14.463Z,97325.69
2022-10-02T02:31:48.229Z,97328.47
2022-10-02T02:34:18.641Z,97337.16
2022-10-02T02:36:49.627Z,97340.28
2022-10-02T02:39:20.467Z,97339.25
2022-10-02T02:41:51.941Z,97331.59
2022-10-02T02:44:24.189Z,97325.69
2022-10-02T02:47:04.618Z,97311.75
2022-10-02T02:49:37.899Z,97309.63
2022-10-02T02:52:08.700Z,97323.59
2022-10-02T02:54:39.009Z,97319.19
2022-10-02T02:57:08.305Z,97316.28
2022-10-02T02:59:39.840Z,97315.28
2022-10-02T03:02:07.963Z,97326.63
2022-10-02T03:04:35.997Z,97328.66
2022-10-02T03:07:05.563Z,97328.06
2022-10-02T03:09:34.506Z,97333.84
2022-10-02T03:12:13.534Z,97330.34
2022-10-02T03:14:54.025Z,97330.84
2022-10-02T03:17:31.118Z,97336.13
2022-10-02T03:20:02.361Z,97344.00
2022-10-02T03:22:47.650Z,97327.66
2022-10-02T03:25:20.254Z,97336.09
2022-10-02T03:27:52.574Z,97344.63
2022-10-02T03:30:22.254Z,97349.19
2022-10-02T03:32:53.617Z,97342.41
2022-10-02T03:35:22.374Z,97331.63
2022-10-02T03:37:52.835Z,97327.06
2022-10-02T03:40:23.355Z,97323.38
2022-10-02T03:42:51.971Z,97319.63
2022-10-02T03:45:46.121Z,97325.69
2022-10-02T03:48:09.514Z,97335.34
2022-10-02T03:50:37.444Z,97326.34
2022-10-02T03:53:10.817Z,97319.97
2022-10-02T03:55:40.506Z,97318.31
2022-10-02T03:58:13.448Z,97316.13
2022-10-02T04:00:46.657Z,97306.56
2022-10-02T04:03:19.260Z,97310.56
2022-10-02T04:05:49.893Z,97312.44
2022-10-02T04:08:19.925Z,97323.41
2022-10-02T04:10:52.830Z,97342.97
2022-10-02T04:13:24.771Z,97341.19
2022-10-02T04:16:03.548Z,97338.28
2022-10-02T04:18:36.366Z,97348.38
2022-10-02T04:21:09.973Z,97354.16
2022-10-02T04:23:42.584Z,97343.28
2022-10-02T04:26:16.231Z,97337.00
2022-10-02T04:28:47.550Z,97341.19
2022-10-02T04:31:15.679Z,97326.97
2022-10-02T04:33:44.960Z,97332.81
2022-10-02T04:36:25.663Z,97326.97
2022-10-02T04:39:02.971Z,97336.84
2022-10-02T04:41:44.995Z,97349.28
2022-10-02T04:44:22.762Z,97335.53
2022-10-02T04:47:14.309Z,97340.81
2022-10-02T04:50:05.513Z,97341.03
2022-10-02T04:52:53.182Z,97337.72
2022-10-02T04:55:39.382Z,97345.50
2022-10-02T04:58:27.014Z,97342.03
2022-10-02T05:01:02.899Z,97332.34
2022-10-02T05:03:42.244Z,97325.84
2022-10-02T05:06:21.171Z,97330.16
2022-10-02T05:09:00.092Z,97328.25
2022-10-02T05:11:39.982Z,97330.16
2022-10-02T05:14:23.603Z,97327.56
2022-10-02T05:17:00.384Z,97336.13
2022-10-02T05:19:43.815Z,97339.94
2022-10-02T05:22:28.602Z,97339.94
2022-10-02T05:25:12.763Z,97352.50
2022-10-02T05:27:51.496Z,97354.69
2022-10-02T05:30:20.888Z,97351.09
2022-10-02T05:33:13.220Z,97347.28
2022-10-02T05:36:01.948Z,97356.56
2022-10-02T05:38:46.280Z,97355.88
2022-10-02T05:41:19.648Z,97353.66
2022-10-02T05:43:50.059Z,97353.47
2022-10-02T05:46:23.927Z,97356.06
2022-10-02T05:48:58.384Z,97345.47
2022-10-02T05:51:36.771Z,97337.28
2022-10-02T05:54:21.186Z,97338.19
2022-10-02T05:56:52.510Z,97351.03
2022-10-02T05:59:27.378Z,97355.13
2022-10-02T06:01:56.257Z,97352.47
2022-10-02T06:04:30.284Z,97357.16
2022-10-02T06:07:01.757Z,97352.47
2022-10-02T06:09:34.519Z,97354.66
2022-10-02T06:12:04.725Z,97358.44
2022-10-02T06:14:35.100Z,97357.25
2022-10-02T06:17:05.613Z,97358.34
2022-10-02T06:19:37.922Z,97359.03
2022-10-02T06:22:08.407Z,97351.66
2022-10-02T06:24:40.898Z,97351.66
2022-10-02T06:27:11.880Z,97349.66
2022-10-02T06:29:43.669Z,97339.88
2022-10-02T06:32:17.894Z,97345.97
2022-10-02T06:34:48.110Z,97345.69
2022-10-02T06:37:34.218Z,97348.28
2022-10-02T06:40:14.581Z,97343.91
2022-10-02T06:42:50.947Z,97334.13
2022-10-02T06:45:25.703Z,97334.53
2022-10-02T06:48:03.099Z,97342.63
2022-10-02T06:50:38.486Z,97343.53
2022-10-02T06:53:16.337Z,97354.31
2022-10-02T06:55:52.897Z,97357.50
2022-10-02T06:58:31.454Z,97348.31
2022-10-02T07:01:09.160Z,97355.22
2022-10-02T07:03:49.486Z,97353.00
2022-10-02T07:06:22.914Z,97351.91
2022-10-02T07:09:14.133Z,97361.31
2022-10-02T07:11:48.322Z,97360.19
2022-10-02T07:14:28.028Z,97356.59
2022-10-02T07:17:09.478Z,97370.47
2022-10-02T07:19:48.998Z,97363.38
2022-10-02T07:22:45.608Z,97364.50
2022-10-02T07:25:35.490Z,97351.03
2022-10-02T07:28:11.035Z,97365.28
2022-10-02T07:30:48.544Z,97367.91
2022-10-02T07:33:21.056Z,97369.59
2022-10-02T07:35:56.232Z,97368.28
2022-10-02T07:38:48.918Z,97374.16
2022-10-02T07:41:52.246Z,97369.47
2022-10-02T07:44:49.185Z,97371.34
2022-10-02T07:47:31.542Z,97375.56
2022-10-02T07:50:05.165Z,97365.59
2022-10-02T07:52:40.649Z,97363.88
2022-10-02T07:55:16.275Z,97363.00
2022-10-02T07:57:52.368Z,97365.88
2022-10-02T08:00:24.633Z,97367.91
2022-10-02T08:02:55.114Z,97361.09
2022-10-02T08:05:25.709Z,97359.38
2022-10-02T08:07:56.231Z,97361.38
2022-10-02T08:10:27.511Z,97360.19
2022-10-02T08:13:01.170Z,97359.31
2022-10-02T08:15:34.532Z,97355.88
2022-10-02T08:18:30.058Z,97353.28
2022-10-02T08:20:54.970Z,97369.25
2022-10-02T08:23:25.158Z,97374.38
2022-10-02T08:26:00.101Z,97365.00
2022-10-02T08:28:31.727Z,97368.09
2022-10-02T08:31:01.800Z,97371.25
2022-10-02T08:33:32.518Z,97380.03
2022-10-02T08:36:18.409Z,97382.97
2022-10-02T08:38:51.371Z,97389.63
2022-10-02T08:41:54.717Z,97385.38
2022-10-02T08:45:02.339Z,97375.06
2022-10-02T08:47:58.176Z,97369.06
2022-10-02T08:50:48.424Z,97372.06
2022-10-02T08:53:58.505Z,97360.06
2022-10-02T08:56:52.538Z,97348.47
2022-10-02T08:59:43.196Z,97350.28
2022-10-02T09:02:42.429Z,97349.09
2022-10-02T09:05:45.147Z,97353.38
2022-10-02T09:08:51.684Z,97358.97
2022-10-02T09:11:38.007Z,97357.28
2022-10-02T09:14:40.292Z,97348.56
2022-10-02T09:17:18.160Z,97351.25
2022-10-02T09:20:11.917Z,97339.06
2022-10-02T09:23:10.396Z,97334.66
2022-10-02T09:25:39.554Z,97332.94
2022-10-02T09:28:38.719Z,97328.81
2022-10-02T09:31:35.148Z,97325.03
2022-10-02T09:38:11.069Z,97312.63
2022-10-02T09:41:14.216Z,97307.06
2022-10-02T09:44:03.566Z,97308.22
2022-10-02T09:46:56.682Z,97310.31
2022-10-02T09:49:44.576Z,97303.19
2022-10-02T09:53:02.142Z,97295.28
2022-10-02T09:55:54.097Z,97285.75
2022-10-02T09:58:59.155Z,97290.56
2022-10-02T10:01:54.682Z,97289.47
2022-10-02T10:05:04.418Z,97288.34
2022-10-02T10:08:01.677Z,97271.34
2022-10-02T10:10:42.594Z,97256.94
2022-10-02T10:13:32.415Z,97263.31
2022-10-02T10:16:34.720Z,97266.50
2022-10-02T10:19:45.359Z,97254.09
2022-10-02T10:22:58.607Z,97246.47
2022-10-02T10:25:39.191Z,97257.25
2022-10-02T10:28:40.708Z,97253.13
2022-10-02T10:31:48.304Z,97247.72
2022-10-02T10:35:04.014Z,97249.00
2022-10-02T10:38:04.545Z,97249.97
2022-10-02T10:40:42.996Z,97246.25
2022-10-02T10:43:42.079Z,97232.00
2022-10-02T10:46:27.020Z,97230.91
2022-10-02T10:49:16.881Z,97232.50
2022-10-02T10:51:49.877Z,97219.28
2022-10-02T10:54:48.727Z,97221.06
2022-10-02T10:57:25.937Z,97223.16
2022-10-02T11:00:17.634Z,97230.63
2022-10-02T11:03:15.200Z,97224.63
2022-10-02T11:06:03.841Z,97220.81
2022-10-02T11:09:15.169Z,97220.63
2022-10-02T11:11:55.410Z,97229.81
2022-10-02T11:14:32.110Z,97209.44
2022-10-02T11:17:14.754Z,97200.44
2022-10-02T11:19:57.966Z,97197.91
2022-10-02T11:22:44.555Z,97196.63
2022-10-02T11:25:29.611Z,97196.00
2022-10-02T11:28:26.411Z,97194.13
2022-10-02T11:31:01.969Z,97191.91
2022-10-02T11:33:54.818Z,97182.06
2022-10-02T11:36:42.588Z,97168.44
2022-10-02T11:39:17.419Z,97161.91
2022-10-02T11:42:24.275Z,97178.91
2022-10-02T11:45:04.857Z,97189.50
2022-10-02T11:47:47.180Z,97179.16
2022-10-02T11:50:32.856Z,97211.84
2022-10-02T11:53:17.135Z,97203.72
2022-10-02T11:55:56.559Z,97135.47
2022-10-02T11:58:41.936Z,97143.09
2022-10-02T12:01:17.434Z,97152.81
2022-10-02T12:03:54.157Z,97138.41
2022-10-02T12:06:33.548Z,97146.53
2022-10-02T12:09:09.208Z,97158.63
2022-10-02T12:11:43.143Z,97184.19
2022-10-02T12:14:18.945Z,97139.84
2022-10-02T12:16:57.167Z,97137.19
2022-10-02T12:20:12.792Z,97151.06
2022-10-02T12:23:03.342Z,97187.88
2022-10-02T12:26:08.230Z,97210.06
2022-10-02T12:28:42.767Z,97217.06
2022-10-02T12:31:16.695Z,97189.63
2022-10-02T12:33:54.247Z,97186.63
2022-10-02T12:36:35.309Z,97162.44
2022-10-02T12:39:12.318Z,97181.75
2022-10-02T12:41:53.192Z,97179.09
2022-10-02T12:44:51.501Z,97178.47
2022-10-02T12:47:42.034Z,97177.84
2022-10-02T12:50:23.400Z,97163.59
2022-10-02T12:53:24.530Z,97176.00
2022-10-02T12:56:19.390Z,97168.34
2022-10-02T12:58:57.454Z,97209.44
2022-10-02T13:01:46.954Z,97180.00
2022-10-02T13:04:50.681Z,97197.78
2022-10-02T13:07:42.653Z,97208.84
2022-10-02T13:10:19.100Z,97197.91
2022-10-02T13:13:01.108Z,97186.66
2022-10-02T13:15:43.137Z,97185.63
2022-10-02T13:18:23.071Z,97178.13
2022-10-02T13:20:54.666Z,97185.47
2022-10-02T13:23:26.454Z,97172.63
2022-10-02T13:26:08.591Z,97183.00
2022-10-02T13:29:08.038Z,97182.22
2022-10-02T13:31:50.963Z,97167.59
2022-10-02T13:34:42.007Z,97166.34
2022-10-02T13:37:16.495Z,97197.59
2022-10-02T13:40:14.446Z,97195.38
2022-10-02T13:42:52.130Z,97195.50
2022-10-02T13:45:25.339Z,97200.25
2022-10-02T13:47:59.651Z,97181.47
2022-10-02T13:50:39.682Z,97164.03
2022-10-02T13:53:22.397Z,97160.59
2022-10-02T13:55:54.830Z,97165.13
2022-10-02T13:58:39.461Z,97158.34
2022-10-02T14:01:17.162Z,97161.44
2022-10-02T14:04:01.066Z,97143.22
2022-10-02T14:06:34.504Z,97149.97
2022-10-02T14:09:11.495Z,97154.19
2022-10-02T14:12:06.080Z,97153.69
2022-10-02T14:14:48.562Z,97148.00
2022-10-02T14:17:22.598Z,97155.13
2022-10-02T14:20:15.885Z,97156.66
2022-10-02T14:22:52.675Z,97155.44
2022-10-02T14:25:37.801Z,97156.81
2022-10-02T14:28:19.171Z,97162.78
2022-10-02T14:31:07.190Z,97154.75
2022-10-02T14:33:44.881Z,97156.06
2022-10-02T14:36:18.199Z,97158.91
2022-10-02T14:38:54.621Z,97158.91
2022-10-02T14:41:58.800Z,97149.63
2022-10-02T14:44:47.117Z,97142.50
2022-10-02T14:47:42.466Z,97139.03
2022-10-02T14:50:20.977Z,97128.47
2022-10-02T14:53:04.169Z,97143.47
2022-10-02T14:55:41.661Z,97153.41
2022-10-02T14:58:36.495Z,97154.38
2022-10-02T15:01:18.761Z,97158.19
2022-10-02T15:04:11.692Z,97166.72
2022-10-02T15:06:52.944Z,97167.84
2022-10-02T15:09:23.574Z,97149.09
2022-10-02T15:12:01.300Z,97150.75
2022-10-02T15:14:36.682Z,97169.94
2022-10-02T15:17:26.990Z,97168.84
2022-10-02T15:20:03.659Z,97180.69
2022-10-02T15:22:36.943Z,97176.72
2022-10-02T15:25:18.119Z,97173.38
2022-10-02T15:27:50.772Z,97169.09
2022-10-02T15:30:21.818Z,97171.31
2022-10-02T15:33:12.887Z,97174.47
2022-10-02T15:35:51.227Z,97180.94
2022-10-02T15:38:28.891Z,97180.34
2022-10-02T15:41:16.686Z,97180.16
2022-10-02T15:43:51.754Z,97160.75
2022-10-02T15:46:24.490Z,97157.81
2022-10-02T15:48:59.885Z,97156.22
2022-10-02T15:51:43.829Z,97152.56
2022-10-02T15:54:19.175Z,97158.81
2022-10-02T15:57:07.239Z,97188.00
2022-10-02T15:59:51.615Z,97201.94
2022-10-02T16:02:35.952Z,97202.53
2022-10-02T16:05:18.872Z,97195.38
2022-10-02T16:07:57.274Z,97204.31
2022-10-02T16:10:26.468Z,97214.13
2022-10-02T16:13:17.039Z,97203.59
2022-10-02T16:15:51.937Z,97205.00
2022-10-02T16:18:38.804Z,97214.81
2022-10-02T16:21:27.389Z,97223.94
2022-10-02T16:24:42.088Z,97216.44
2022-10-02T16:27:30.136Z,97206.16
2022-10-02T16:30:11.809Z,97208.84
2022-10-02T16:33:04.309Z,97215.53
2022-10-02T16:35:54.969Z,97228.13
2022-10-02T16:38:28.339Z,97227.63
2022-10-02T16:40:58.365Z,97246.50
2022-10-02T16:43:58.098Z,97253.50
2022-10-02T16:46:31.275Z,97244.91
2022-10-02T16:49:04.335Z,97236.22
2022-10-02T16:51:45.145Z,97247.91
2022-10-02T16:54:20.717Z,97240.47
2022-10-02T16:56:53.705Z,97243.69
2022-10-02T16:59:26.688Z,97255.09
2022-10-02T17:02:19.233Z,97269.31
2022-10-02T17:04:51.381Z,97275.56
2022-10-02T17:07:30.069Z,97291.53
2022-10-02T17:10:02.617Z,97284.94
2022-10-02T17:12:34.004Z,97286.56
2022-10-02T17:15:08.376Z,97280.53
2022-10-02T17:17:52.483Z,97296.72
2022-10-02T17:20:25.163Z,97289.38
2022-10-02T17:22:56.950Z,97286.34
2022-10-02T17:25:29.850Z,97289.94
2022-10-02T17:28:01.213Z,97290.28
2022-10-02T17:30:46.192Z,97296.78
2022-10-02T17:33:16.407Z,97295.56
2022-10-02T17:35:49.351Z,97298.78
2022-10-02T17:38:38.882Z,97283.06
2022-10-02T17:41:14.451Z,97292.75
2022-10-02T17:43:50.726Z,97299.13
2022-10-02T17:46:35.397Z,97315.75
2022-10-02T17:49:06.510Z,97323.34
2022-10-02T17:51:52.760Z,97346.09
2022-10-02T17:54:57.138Z,97333.72
2022-10-02T17:57:36.726Z,97322.13
2022-10-02T18:00:14.926Z,97332.53
2022-10-02T18:03:00.412Z,97338.31
2022-10-02T18:05:34.365Z,97348.00
2022-10-02T18:08:12.231Z,97356.09
2022-10-02T18:10:47.682Z,97363.88
2022-10-02T18:13:34.217Z,97369.25
2022-10-02T18:16:17.590Z,97348.50
2022-10-02T18:19:05.916Z,97338.31
2022-10-02T18:21:37.827Z,97344.22
2022-10-02T18:24:22.718Z,97352.72
2022-10-02T18:27:09.111Z,97369.59
2022-10-02T18:29:49.569Z,97382.06
2022-10-02T18:32:36.253Z,97367.88
2022-10-02T18:35:43.209Z,97365.91
2022-10-02T18:38:19.777Z,97376.06
2022-10-02T18:40:56.825Z,97371.66
2022-10-02T18:43:52.457Z,97390.25
2022-10-02T18:46:30.360Z,97381.16
2022-10-02T18:49:35.828Z,97391.66
2022-10-02T18:52:35.432Z,97387.84
2022-10-02T18:55:17.080Z,97389.84
2022-10-02T18:57:52.609Z,97382.78
2022-10-02T19:00:22.641Z,97391.03
2022-10-02T19:03:03.227Z,97407.81
2022-10-02T19:05:32.967Z,97413.91
2022-10-02T19:08:14.755Z,97410.03
2022-10-02T19:10:46.648Z,97414.81
2022-10-02T19:13:23.696Z,97418.00
2022-10-02T19:15:53.133Z,97418.63
2022-10-02T19:18:22.692Z,97417.94
2022-10-02T19:20:54.380Z,97414.31
2022-10-02T19:23:26.766Z,97419.22
2022-10-02T19:25:56.104Z,97419.63
2022-10-02T19:28:27.988Z,97412.03
2022-10-02T19:30:59.824Z,97415.94
2022-10-02T19:33:34.583Z,97412.81
2022-10-02T19:36:04.503Z,97418.81
2022-10-02T19:38:35.958Z,97422.41
2022-10-02T19:41:09.703Z,97430.00
2022-10-02T19:43:48.192Z,97431.78
2022-10-02T19:46:19.869Z,97421.41
2022-10-02T19:48:48.226Z,97415.94
2022-10-02T19:51:18.650Z,97419.59
2022-10-02T19:53:53.324Z,97409.63
2022-10-02T19:56:24.525Z,97409.13
2022-10-02T19:58:54.044Z,97439.34
2022-10-02T20:01:24.664Z,97442.34
2022-10-02T20:03:56.657Z,97446.06
2022-10-02T20:06:26.344Z,97436.00
2022-10-02T20:09:23.702Z,97438.69
2022-10-02T20:11:54.422Z,97447.38
2022-10-02T20:14:25.424Z,97437.56
2022-10-02T20:17:12.661Z,97427.00
2022-10-02T20:19:45.256Z,97441.38
2022-10-02T20:22:24.912Z,97444.19
2022-10-02T20:24:58.324Z,97460.38
2022-10-02T20:27:34.833Z,97462.94
2022-10-02T20:30:06.768Z,97455.94
2022-10-02T20:32:36.998Z,97466.72
2022-10-02T20:35:10.118Z,97466.94
2022-10-02T20:37:40.699Z,97461.75
2022-10-02T20:40:15.013Z,97457.34
2022-10-02T20:42:49.828Z,97468.13
2022-10-02T20:45:18.185Z,97474.50
2022-10-02T20:48:00.454Z,97482.19
2022-10-02T20:50:40.445Z,97478.91
2022-10-02T20:53:34.345Z,97485.50
2022-10-02T20:56:08.963Z,97482.09
2022-10-02T20:59:01.985Z,97481.28
2022-10-02T21:01:37.460Z,97494.47
2022-10-02T21:04:49.186Z,97498.25
2022-10-02T21:07:25.794Z,97491.19
2022-10-02T21:10:08.412Z,97495.28
2022-10-02T21:13:06.154Z,97505.88
2022-10-02T21:16:30.969Z,97509.75
2022-10-02T21:19:33.968Z,97514.91
2022-10-02T21:22:26.666Z,97517.84
2022-10-02T21:25:40.551Z,97520.00
2022-10-02T21:28:46.659Z,97520.81
2022-10-02T21:31:26.796Z,97524.38
2022-10-02T21:34:00.286Z,97523.22
2022-10-02T21:36:33.692Z,97526.75
2022-10-02T21:39:34.615Z,97531.97
2022-10-02T21:42:27.677Z,97532.94
2022-10-02T21:45:43.410Z,97543.75
2022-10-02T21:48:55.122Z,97535.16
2022-10-02T21:52:03.588Z,97544.56
2022-10-02T21:55:07.713Z,97550.47
2022-10-02T21:57:58.264Z,97550.66
2022-10-02T22:00:27.464Z,97554.09
2022-10-02T22:03:20.645Z,97563.28
2022-10-02T22:06:36.458Z,97570.50
2022-10-02T22:09:27.543Z,97571.41
2022-10-02T22:12:09.931Z,97567.97
2022-10-02T22:14:40.784Z,97561.44
2022-10-02T22:17:17.192Z,97560.66
2022-10-02T22:20:07.356Z,97565.25
2022-10-02T22:22:49.180Z,97568.31
2022-10-02T22:25:26.120Z,97569.59
2022-10-02T22:28:27.989Z,97581.19
2022-10-02T22:31:43.428Z,97587.44
2022-10-02T22:34:22.450Z,97590.50
2022-10-02T22:37:20.805Z,97589.72
2022-10-02T22:40:16.178Z,97581.63
2022-10-02T22:42:47.353Z,97594.28
2022-10-02T22:45:43.356Z,97598.22
2022-10-02T22:48:15.570Z,97602.25
2022-10-02T22:50:48.614Z,97597.06
2022-10-02T22:53:19.593Z,97598.44
2022-10-02T22:55:51.799Z,97614.31
2022-10-02T22:58:22.473Z,97613.81
2022-10-02T23:01:00.338Z,97607.97
2022-10-02T23:03:33.410Z,97616.91
2022-10-02T23:06:04.441Z,97619.91
2022-10-02T23:08:34.673Z,97613.72
2022-10-02T23:11:09.139Z,97619.66
2022-10-02T23:13:41.984Z,97624.84
2022-10-02T23:16:15.329Z,97626.09
2022-10-02T23:18:46.730Z,97624.06
2022-10-02T23:21:26.454Z,97635.72
2022-10-02T23:23:58.226Z,97631.91
2022-10-02T23:26:33.505Z,97631.56
2022-10-02T23:29:15.725Z,97628.38
2022-10-02T23:31:49.149Z,97634.50
2022-10-02T23:34:23.903Z,97642.78
2022-10-02T23:36:55.936Z,97635.81
2022-10-02T23:39:27.922Z,97632.03
2022-10-02T23:41:59.614Z,97641.44
2022-10-02T23:44:34.542Z,97642.78
2022-10-02T23:47:22.082Z,97641.19
2022-10-02T23:49:52.404Z,97652.75
2022-10-02T23:52:36.557Z,97653.56
2022-10-02T23:55:20.586Z,97658.13
2022-10-02T23:58:02.707Z,97651.47
